createdAt,value
2022-09-01T00:00:15.181Z,43.50
2022-09-01T00:02:45.646Z,43.60
2022-09-01T00:05:14.684Z,43.50
2022-09-01T00:07:46.310Z,43.50
2022-09-01T00:10:18.730Z,43.50
2022-09-01T00:12:49.622Z,43.50
2022-09-01T00:15:18.445Z,43.60
2022-09-01T00:17:47.265Z,43.60
2022-09-01T00:20:20.127Z,43.60
2022-09-01T00:22:51.284Z,43.70
2022-09-01T00:25:21.179Z,43.70
2022-09-01T00:27:51.027Z,43.70
2022-09-01T00:30:20.203Z,43.70
2022-09-01T00:32:49.521Z,43.80
2022-09-01T00:35:20.783Z,43.80
2022-09-01T00:37:50.994Z,43.90
2022-09-01T00:40:20.280Z,43.90
2022-09-01T00:42:49.431Z,43.90
2022-09-01T00:45:19.333Z,44.00
2022-09-01T00:47:50.926Z,44.00
2022-09-01T00:50:21.411Z,43.90
2022-09-01T00:52:54.592Z,44.00
2022-09-01T00:55:27.806Z,43.90
2022-09-01T00:57:57.236Z,43.90
2022-09-01T01:00:31.738Z,43.90
2022-09-01T01:03:00.446Z,43.90
2022-09-01T01:05:36.479Z,43.90
2022-09-01T01:08:08.300Z,43.90
2022-09-01T01:10:41.288Z,44.10
2022-09-01T01:13:14.064Z,44.10
2022-09-01T01:15:43.954Z,44.10
2022-09-01T01:18:13.502Z,44.00
2022-09-01T01:21:00.134Z,44.00
2022-09-01T01:23:40.400Z,44.10
2022-09-01T01:26:12.554Z,44.20
2022-09-01T01:28:44.396Z,44.20
2022-09-01T01:31:16.418Z,44.30
2022-09-01T01:33:48.947Z,44.40
2022-09-01T01:36:22.756Z,44.40
2022-09-01T01:38:53.197Z,44.40
2022-09-01T01:41:24.274Z,44.30
2022-09-01T01:43:52.918Z,44.40
2022-09-01T01:46:22.812Z,44.30
2022-09-01T01:48:52.494Z,44.30
2022-09-01T01:51:25.049Z,44.40
2022-09-01T01:53:55.317Z,44.40
2022-09-01T01:56:26.260Z,44.50
2022-09-01T01:58:56.568Z,44.50
2022-09-01T02:01:29.066Z,44.40
2022-09-01T02:04:00.406Z,44.40
2022-09-01T02:06:34.654Z,44.50
2022-09-01T02:09:05.213Z,44.40
2022-09-01T02:11:37.496Z,44.30
2022-09-01T02:14:09.411Z,44.40
2022-09-01T02:16:38.623Z,44.30
2022-09-01T02:19:10.605Z,44.30
2022-09-01T02:21:55.877Z,44.40
2022-09-01T02:24:26.513Z,44.50
2022-09-01T02:26:59.297Z,44.40
2022-09-01T02:29:29.439Z,44.40
2022-09-01T02:31:58.587Z,44.50
2022-09-01T02:34:29.113Z,44.50
2022-09-01T02:37:00.736Z,44.50
2022-09-01T02:39:33.661Z,44.60
2022-09-01T02:42:04.733Z,44.60
2022-09-01T02:44:36.263Z,44.60
2022-09-01T02:47:09.931Z,44.60
2022-09-01T02:49:38.815Z,44.70
2022-09-01T02:52:08.180Z,44.70
2022-09-01T02:54:37.108Z,44.70
2022-09-01T02:57:09.102Z,44.70
2022-09-01T02:59:43.119Z,44.90
2022-09-01T03:02:12.338Z,44.80
2022-09-01T03:04:41.044Z,45.00
2022-09-01T03:07:10.599Z,45.00
2022-09-01T03:09:41.585Z,45.00
2022-09-01T03:12:11.704Z,45.00
2022-09-01T03:14:40.372Z,45.10
2022-09-01T03:17:09.164Z,45.10
2022-09-01T03:19:45.254Z,45.10
2022-09-01T03:22:14.419Z,45.10
2022-09-01T03:24:43.513Z,45.10
2022-09-01T03:27:13.818Z,45.20
2022-09-01T03:29:42.664Z,45.30
2022-09-01T03:32:11.425Z,45.30
2022-09-01T03:34:40.203Z,45.20
2022-09-01T03:37:09.734Z,45.30
2022-09-01T03:39:38.594Z,45.30
2022-09-01T03:42:10.945Z,45.30
2022-09-01T03:44:45.285Z,45.40
2022-09-01T03:47:17.041Z,45.50
2022-09-01T03:49:47.143Z,45.40
2022-09-01T03:52:18.161Z,45.50
2022-09-01T03:54:47.021Z,45.50
2022-09-01T03:57:15.989Z,45.60
2022-09-01T03:59:47.099Z,45.70
2022-09-01T04:02:16.957Z,45.70
2022-09-01T04:04:45.551Z,45.70
2022-09-01T04:07:18.940Z,45.80
2022-09-01T04:09:47.986Z,45.70
2022-09-01T04:12:17.268Z,45.70
2022-09-01T04:14:52.564Z,45.70
2022-09-01T04:17:38.682Z,45.70
2022-09-01T04:20:09.515Z,45.70
2022-09-01T04:22:38.887Z,45.70
2022-09-01T04:25:09.333Z,45.80
2022-09-01T04:27:40.405Z,46.40
2022-09-01T04:30:12.437Z,45.80
2022-09-01T04:32:46.818Z,45.90
2022-09-01T04:35:17.117Z,45.80
2022-09-01T04:37:47.611Z,45.70
2022-09-01T04:40:17.665Z,45.70
2022-09-01T04:42:48.232Z,45.80
2022-09-01T04:45:27.937Z,45.90
2022-09-01T04:47:56.954Z,45.90
2022-09-01T04:50:26.195Z,45.90
2022-09-01T04:53:13.516Z,45.90
2022-09-01T04:55:47.172Z,46.60
2022-09-01T04:58:20.575Z,45.90
2022-09-01T05:00:53.128Z,45.90
2022-09-01T05:03:24.361Z,45.90
2022-09-01T05:06:15.699Z,45.90
2022-09-01T05:08:52.188Z,45.90
2022-09-01T05:11:39.759Z,45.80
2022-09-01T05:14:20.063Z,45.80
2022-09-01T05:16:51.289Z,45.80
2022-09-01T05:19:20.968Z,45.70
2022-09-01T05:21:50.629Z,45.80
2022-09-01T05:24:22.377Z,45.80
2022-09-01T05:26:51.044Z,45.90
2022-09-01T05:29:21.128Z,46.50
2022-09-01T05:31:52.695Z,45.90
2022-09-01T05:34:26.433Z,45.90
2022-09-01T05:36:59.294Z,45.90
2022-09-01T05:39:28.826Z,45.90
2022-09-01T05:41:59.911Z,46.00
2022-09-01T05:44:28.673Z,46.10
2022-09-01T05:47:00.536Z,46.10
2022-09-01T05:49:33.276Z,46.20
2022-09-01T05:52:05.404Z,46.10
2022-09-01T05:54:34.827Z,46.90
2022-09-01T05:57:30.451Z,46.30
2022-09-01T05:59:56.171Z,46.30
2022-09-01T06:02:29.440Z,46.40
2022-09-01T06:05:00.325Z,46.50
2022-09-01T06:07:38.108Z,46.40
2022-09-01T06:10:09.446Z,46.50
2022-09-01T06:12:38.715Z,46.50
2022-09-01T06:15:16.076Z,46.50
2022-09-01T06:17:49.795Z,46.60
2022-09-01T06:20:19.316Z,46.60
2022-09-01T06:22:48.956Z,46.70
2022-09-01T06:25:18.775Z,46.70
2022-09-01T06:27:49.484Z,47.40
2022-09-01T06:30:24.095Z,46.90
2022-09-01T06:33:14.217Z,46.90
2022-09-01T06:35:49.271Z,47.00
2022-09-01T06:38:22.067Z,46.90
2022-09-01T06:41:14.443Z,46.80
2022-09-01T06:43:44.555Z,46.90
2022-09-01T06:46:18.319Z,47.10
2022-09-01T06:48:49.432Z,47.30
2022-09-01T06:51:22.262Z,47.30
2022-09-01T06:54:14.564Z,47.10
2022-09-01T06:56:51.231Z,47.10
2022-09-01T06:59:23.336Z,47.20
2022-09-01T07:02:01.302Z,47.00
2022-09-01T07:04:49.986Z,47.10
2022-09-01T07:10:28.093Z,47.30
2022-09-01T07:13:19.902Z,47.40
2022-09-01T07:20:28.697Z,47.40
2022-09-01T07:45:25.471Z,47.30
2022-09-01T07:47:52.653Z,47.20
2022-09-01T07:53:20.134Z,47.40
2022-09-01T07:55:50.784Z,47.30
2022-09-01T07:58:23.919Z,47.30
2022-09-01T08:01:02.808Z,47.30
2022-09-01T08:03:32.475Z,47.40
2022-09-01T08:06:07.819Z,47.40
2022-09-01T08:08:41.365Z,47.30
2022-09-01T08:11:10.306Z,47.20
2022-09-01T08:13:41.990Z,47.10
2022-09-01T08:16:19.550Z,47.00
2022-09-01T08:18:50.481Z,47.00
2022-09-01T08:21:29.403Z,47.00
2022-09-01T08:24:01.850Z,46.80
2022-09-01T08:26:31.833Z,46.90
2022-09-01T08:29:03.782Z,46.90
2022-09-01T08:31:38.079Z,47.00
2022-09-01T08:34:07.140Z,47.00
2022-09-01T08:36:36.100Z,46.80
2022-09-01T08:39:06.228Z,46.70
2022-09-01T08:41:47.127Z,46.60
2022-09-01T08:44:31.057Z,46.40
2022-09-01T08:47:07.110Z,46.40
2022-09-01T08:49:45.878Z,46.20
2022-09-01T08:52:42.484Z,46.20
2022-09-01T08:55:22.047Z,46.20
2022-09-01T08:57:57.081Z,46.10
2022-09-01T09:00:33.382Z,46.00
2022-09-01T09:03:22.608Z,45.80
2022-09-01T09:06:12.167Z,45.60
2022-09-01T09:08:56.767Z,45.70
2022-09-01T09:11:53.536Z,45.80
2022-09-01T09:14:39.521Z,45.70
2022-09-01T09:17:11.049Z,45.70
2022-09-01T09:19:42.621Z,45.60
2022-09-01T09:22:14.398Z,45.40
2022-09-01T09:24:53.347Z,45.50
2022-09-01T09:27:28.099Z,45.30
2022-09-01T09:30:04.192Z,45.30
2022-09-01T09:35:42.029Z,45.00
2022-09-01T09:38:28.435Z,45.20
2022-09-01T09:41:25.437Z,44.80
2022-09-01T09:44:01.093Z,45.10
2022-09-01T09:46:37.860Z,45.00
2022-09-01T09:49:32.576Z,44.80
2022-09-01T09:52:18.255Z,44.80
2022-09-01T09:55:22.845Z,44.90
2022-09-01T09:57:54.940Z,44.70
2022-09-01T10:00:27.309Z,45.10
2022-09-01T10:03:01.476Z,45.00
2022-09-01T10:05:43.218Z,45.00
2022-09-01T10:08:16.563Z,44.80
2022-09-01T10:10:57.605Z,45.10
2022-09-01T10:13:31.400Z,45.00
2022-09-01T10:16:05.668Z,45.00
2022-09-01T10:18:41.445Z,44.90
2022-09-01T10:21:17.239Z,44.80
2022-09-01T10:23:45.916Z,44.70
2022-09-01T10:26:21.054Z,44.70
2022-09-01T10:28:56.131Z,44.30
2022-09-01T10:31:29.576Z,44.10
2022-09-01T10:34:05.925Z,44.20
2022-09-01T10:36:37.820Z,43.90
2022-09-01T10:39:12.191Z,44.10
2022-09-01T10:42:00.678Z,44.30
2022-09-01T10:44:35.734Z,44.00
2022-09-01T10:47:14.592Z,44.00
2022-09-01T10:50:07.632Z,43.90
2022-09-01T10:52:59.163Z,44.00
2022-09-01T10:55:34.992Z,44.00
2022-09-01T11:01:13.337Z,44.00
2022-09-01T11:04:01.398Z,44.10
2022-09-01T11:07:26.879Z,43.80
2022-09-01T11:10:33.635Z,43.60
2022-09-01T11:13:36.242Z,43.40
2022-09-01T11:16:49.560Z,43.50
2022-09-01T11:19:44.424Z,43.40
2022-09-01T11:22:36.263Z,43.10
2022-09-01T11:25:40.227Z,43.40
2022-09-01T11:28:43.629Z,43.30
2022-09-01T11:31:26.532Z,43.00
2022-09-01T11:34:11.016Z,42.80
2022-09-01T11:36:55.783Z,43.10
2022-09-01T11:39:42.500Z,42.90
2022-09-01T11:42:23.033Z,42.50
2022-09-01T11:44:57.741Z,42.50
2022-09-01T11:47:30.572Z,42.30
2022-09-01T11:50:02.508Z,42.30
2022-09-01T11:52:36.650Z,42.10
2022-09-01T11:55:08.196Z,42.10
2022-09-01T11:57:40.505Z,42.10
2022-09-01T12:00:13.293Z,41.80
2022-09-01T12:02:47.175Z,41.80
2022-09-01T12:05:37.763Z,41.80
2022-09-01T12:08:15.130Z,41.40
2022-09-01T12:10:44.915Z,41.80
2022-09-01T12:13:21.367Z,42.10
2022-09-01T12:16:17.009Z,41.90
2022-09-01T12:18:48.964Z,41.60
2022-09-01T12:21:24.140Z,41.80
2022-09-01T12:23:53.492Z,41.40
2022-09-01T12:26:32.342Z,41.30
2022-09-01T12:29:02.729Z,40.70
2022-09-01T12:31:31.675Z,41.10
2022-09-01T12:34:02.438Z,40.90
2022-09-01T12:36:34.823Z,40.90
2022-09-01T12:39:22.977Z,40.80
2022-09-01T12:42:25.215Z,40.50
2022-09-01T12:44:58.589Z,40.50
2022-09-01T12:47:51.261Z,40.60
2022-09-01T12:50:46.195Z,40.60
2022-09-01T12:53:32.526Z,40.80
2022-09-01T12:56:20.068Z,40.40
2022-09-01T12:58:54.724Z,40.30
2022-09-01T13:01:32.700Z,40.20
2022-09-01T13:04:24.574Z,39.80
2022-09-01T13:06:54.024Z,39.40
2022-09-01T13:09:22.693Z,39.90
2022-09-01T13:12:07.449Z,39.70
2022-09-01T13:14:36.417Z,39.80
2022-09-01T13:17:14.083Z,39.30
2022-09-01T13:19:43.291Z,38.90
2022-09-01T13:22:12.157Z,39.10
2022-09-01T13:24:41.023Z,39.10
2022-09-01T13:27:26.620Z,39.10
2022-09-01T13:29:55.778Z,39.40
2022-09-01T13:32:25.775Z,38.70
2022-09-01T13:34:55.902Z,38.40
2022-09-01T13:37:25.480Z,38.40
2022-09-01T13:39:54.033Z,38.40
2022-09-01T13:42:27.050Z,38.40
2022-09-01T13:44:57.605Z,38.40
2022-09-01T13:47:29.852Z,38.40
2022-09-01T13:50:08.912Z,38.30
2022-09-01T13:52:40.624Z,38.10
2022-09-01T13:55:12.439Z,38.10
2022-09-01T13:57:41.374Z,38.00
2022-09-01T14:00:15.719Z,38.40
2022-09-01T14:02:50.286Z,37.80
2022-09-01T14:05:21.075Z,37.60
2022-09-01T14:07:50.094Z,37.60
2022-09-01T14:10:19.868Z,37.70
2022-09-01T14:12:49.049Z,37.50
2022-09-01T14:15:26.469Z,37.20
2022-09-01T14:17:58.498Z,36.80
2022-09-01T14:20:33.373Z,36.80
2022-09-01T14:23:06.682Z,36.80
2022-09-01T14:25:35.672Z,37.20
2022-09-01T14:28:05.219Z,37.10
2022-09-01T14:30:35.379Z,37.00
2022-09-01T14:33:07.825Z,36.90
2022-09-01T14:35:40.947Z,36.20
2022-09-01T14:38:10.364Z,36.10
2022-09-01T14:40:41.512Z,36.10
2022-09-01T14:43:12.698Z,36.10
2022-09-01T14:45:44.691Z,36.10
2022-09-01T14:48:17.103Z,36.80
2022-09-01T14:50:49.065Z,35.90
2022-09-01T14:53:19.117Z,36.20
2022-09-01T14:55:49.589Z,36.00
2022-09-01T14:58:19.983Z,35.90
2022-09-01T15:00:48.875Z,35.90
2022-09-01T15:03:22.561Z,35.80
2022-09-01T15:05:51.488Z,35.40
2022-09-01T15:08:20.248Z,35.40
2022-09-01T15:10:49.194Z,35.40
2022-09-01T15:13:17.765Z,35.40
2022-09-01T15:15:46.508Z,36.00
2022-09-01T15:18:15.056Z,35.00
2022-09-01T15:20:48.829Z,34.80
2022-09-01T15:23:21.580Z,34.60
2022-09-01T15:25:55.168Z,34.90
2022-09-01T15:28:24.062Z,34.90
2022-09-01T15:30:54.404Z,34.70
2022-09-01T15:33:23.063Z,34.60
2022-09-01T15:35:53.867Z,34.70
2022-09-01T15:38:27.167Z,34.60
2022-09-01T15:41:01.017Z,34.60
2022-09-01T15:43:30.197Z,34.60
2022-09-01T15:46:00.635Z,34.50
2022-09-01T15:48:30.235Z,34.70
2022-09-01T15:51:32.540Z,34.70
2022-09-01T15:54:04.124Z,34.60
2022-09-01T15:56:33.052Z,35.00
2022-09-01T15:59:03.600Z,35.00
2022-09-01T16:01:36.226Z,35.00
2022-09-01T16:04:06.818Z,35.00
2022-09-01T16:06:37.041Z,34.80
2022-09-01T16:09:07.367Z,34.60
2022-09-01T16:11:37.166Z,34.50
2022-09-01T16:14:06.367Z,34.50
2022-09-01T16:16:51.851Z,34.30
2022-09-01T16:19:34.052Z,34.20
2022-09-01T16:22:14.609Z,34.00
2022-09-01T16:24:46.515Z,34.40
2022-09-01T16:27:19.998Z,34.00
2022-09-01T16:29:52.402Z,34.40
2022-09-01T16:32:23.402Z,34.20
2022-09-01T16:34:53.320Z,34.40
2022-09-01T16:37:41.126Z,34.50
2022-09-01T16:40:26.255Z,34.30
2022-09-01T16:43:02.958Z,34.30
2022-09-01T16:45:46.645Z,34.40
2022-09-01T16:48:23.574Z,34.30
2022-09-01T16:51:00.473Z,34.30
2022-09-01T16:53:54.137Z,34.40
2022-09-01T16:56:31.325Z,33.90
2022-09-01T17:01:54.539Z,34.30
2022-09-01T17:04:38.488Z,34.20
2022-09-01T17:07:29.536Z,34.30
2022-09-01T17:10:06.255Z,35.00
2022-09-01T17:12:43.024Z,34.40
2022-09-01T17:15:15.796Z,34.50
2022-09-01T17:17:51.598Z,34.60
2022-09-01T17:20:24.954Z,34.50
2022-09-01T17:22:59.054Z,34.50
2022-09-01T17:25:37.209Z,34.70
2022-09-01T17:28:12.057Z,34.60
2022-09-01T17:30:50.156Z,34.70
2022-09-01T17:33:28.833Z,34.70
2022-09-01T17:36:13.958Z,35.00
2022-09-01T17:38:54.369Z,35.00
2022-09-01T17:41:35.460Z,35.00
2022-09-01T17:44:16.648Z,35.00
2022-09-01T17:46:53.998Z,35.20
2022-09-01T17:49:29.877Z,35.20
2022-09-01T17:52:07.630Z,35.20
2022-09-01T17:54:44.712Z,35.20
2022-09-01T17:57:24.855Z,35.20
2022-09-01T18:00:01.575Z,35.20
2022-09-01T18:03:19.118Z,35.30
2022-09-01T18:06:00.839Z,35.30
2022-09-01T18:08:40.319Z,35.30
2022-09-01T18:11:15.229Z,35.40
2022-09-01T18:13:53.772Z,35.30
2022-09-01T18:16:27.179Z,35.40
2022-09-01T18:18:59.137Z,35.50
2022-09-01T18:21:35.204Z,35.40
2022-09-01T18:24:16.579Z,35.50
2022-09-01T18:26:49.264Z,35.60
2022-09-01T18:29:20.407Z,35.50
2022-09-01T18:32:08.875Z,35.50
2022-09-01T18:35:11.592Z,35.60
2022-09-01T18:37:58.056Z,35.70
2022-09-01T18:40:33.752Z,35.60
2022-09-01T18:43:14.349Z,35.70
2022-09-01T18:45:52.767Z,35.60
2022-09-01T18:51:11.931Z,35.70
2022-09-01T18:53:47.662Z,36.50
2022-09-01T18:56:35.540Z,35.90
2022-09-01T18:59:37.039Z,35.80
2022-09-01T19:02:27.082Z,35.80
2022-09-01T19:05:01.385Z,35.80
2022-09-01T19:07:39.085Z,35.90
2022-09-01T19:10:18.316Z,35.90
2022-09-01T19:12:56.479Z,35.90
2022-09-01T19:15:32.724Z,35.90
2022-09-01T19:18:25.987Z,35.90
2022-09-01T19:21:02.518Z,36.00
2022-09-01T19:23:43.082Z,35.90
2022-09-01T19:26:21.184Z,36.00
2022-09-01T19:28:54.119Z,36.10
2022-09-01T19:31:27.436Z,36.10
2022-09-01T19:34:01.529Z,36.00
2022-09-01T19:36:38.754Z,36.10
2022-09-01T19:39:09.930Z,36.10
2022-09-01T19:41:45.469Z,36.10
2022-09-01T19:44:23.653Z,36.10
2022-09-01T19:46:57.406Z,36.10
2022-09-01T19:49:38.488Z,36.10
2022-09-01T19:52:12.028Z,36.20
2022-09-01T19:54:52.030Z,36.20
2022-09-01T19:57:28.620Z,36.30
2022-09-01T20:00:08.945Z,36.30
2022-09-01T20:02:42.903Z,36.20
2022-09-01T20:05:30.403Z,36.20
2022-09-01T20:08:04.535Z,36.20
2022-09-01T20:10:58.890Z,36.20
2022-09-01T20:13:58.629Z,36.20
2022-09-01T20:16:33.775Z,36.20
2022-09-01T20:19:10.314Z,36.20
2022-09-01T20:21:48.010Z,36.20
2022-09-01T20:24:26.640Z,36.20
2022-09-01T20:27:07.251Z,36.30
2022-09-01T20:29:46.986Z,36.20
2022-09-01T20:32:26.468Z,36.20
2022-09-01T20:35:00.295Z,36.30
2022-09-01T20:37:38.561Z,36.40
2022-09-01T20:40:15.723Z,36.30
2022-09-01T20:43:03.841Z,36.40
2022-09-01T20:45:33.206Z,36.40
2022-09-01T20:48:06.459Z,36.40
2022-09-01T20:50:43.082Z,36.40
2022-09-01T20:53:28.357Z,36.30
2022-09-01T20:56:04.510Z,36.30
2022-09-01T20:58:43.502Z,36.30
2022-09-01T21:01:20.354Z,36.30
2022-09-01T21:04:03.074Z,36.30
2022-09-01T21:06:54.503Z,36.30
2022-09-01T21:09:38.062Z,36.50
2022-09-01T21:12:14.599Z,36.40
2022-09-01T21:14:56.469Z,36.50
2022-09-01T21:17:42.160Z,36.50
2022-09-01T21:20:19.484Z,36.50
2022-09-01T21:22:50.343Z,36.50
2022-09-01T21:25:20.395Z,36.50
2022-09-01T21:27:57.482Z,36.60
2022-09-01T21:30:27.245Z,36.60
2022-09-01T21:32:57.084Z,36.60
2022-09-01T21:35:25.865Z,36.50
2022-09-01T21:37:54.659Z,36.50
2022-09-01T21:40:26.674Z,36.60
2022-09-01T21:43:00.349Z,36.50
2022-09-01T21:45:29.468Z,36.60
2022-09-01T21:47:58.173Z,36.60
2022-09-01T21:50:27.674Z,36.60
2022-09-01T21:52:56.387Z,36.60
2022-09-01T21:55:26.700Z,36.70
2022-09-01T21:57:55.495Z,36.70
2022-09-01T22:00:27.645Z,36.60
2022-09-01T22:02:57.656Z,36.70
2022-09-01T22:05:29.386Z,36.70
2022-09-01T22:07:58.952Z,36.80
2022-09-01T22:10:31.616Z,36.70
2022-09-01T22:13:03.549Z,36.80
2022-09-01T22:15:32.728Z,36.70
2022-09-01T22:18:01.332Z,36.70
2022-09-01T22:20:32.003Z,36.80
2022-09-01T22:23:02.066Z,36.70
2022-09-01T22:25:33.991Z,36.80
2022-09-01T22:28:05.055Z,36.90
2022-09-01T22:30:34.849Z,36.90
2022-09-01T22:33:07.618Z,36.90
2022-09-01T22:35:36.368Z,36.90
2022-09-01T22:38:04.929Z,37.00
2022-09-01T22:40:35.425Z,36.90
2022-09-01T22:43:05.661Z,36.90
2022-09-01T22:45:34.413Z,36.90
2022-09-01T22:48:03.045Z,36.90
2022-09-01T22:50:31.628Z,37.10
2022-09-01T22:53:00.177Z,37.00
2022-09-01T22:55:29.018Z,37.00
2022-09-01T22:57:58.928Z,37.10
2022-09-01T23:00:27.479Z,37.10
2022-09-01T23:02:57.162Z,37.10
2022-09-01T23:05:25.957Z,37.00
2022-09-01T23:07:54.767Z,37.10
2022-09-01T23:10:23.982Z,37.10
2022-09-01T23:12:52.582Z,37.10
2022-09-01T23:15:22.573Z,37.30
2022-09-01T23:17:51.362Z,37.20
2022-09-01T23:20:20.287Z,37.20
2022-09-01T23:22:48.876Z,37.30
2022-09-01T23:25:18.454Z,37.30
2022-09-01T23:27:47.136Z,37.20
2022-09-01T23:30:16.945Z,37.20
2022-09-01T23:32:46.936Z,37.30
2022-09-01T23:35:16.443Z,37.20
2022-09-01T23:37:45.178Z,37.30
2022-09-01T23:40:14.258Z,37.40
2022-09-01T23:42:43.460Z,37.40
2022-09-01T23:45:13.053Z,37.50
2022-09-01T23:47:42.474Z,37.40
2022-09-01T23:50:13.162Z,37.40
2022-09-01T23:52:41.737Z,37.40
2022-09-01T23:55:11.106Z,37.40
2022-09-01T23:57:39.765Z,37.40
